createdAt,value
2018-06-12T00:00:04.346Z,1006.97
2018-06-12T00:01:04.344Z,1007.01
2018-06-12T00:02:04.342Z,1007.02
2018-06-12T00:03:04.338Z,1007.10
2018-06-12T00:04:04.337Z,1007.06
2018-06-12T00:05:04.337Z,1007.04
2018-06-12T00:06:04.345Z,1007.02
2018-06-12T00:07:04.340Z,1007.06
2018-06-12T00:08:04.342Z,1007.02
2018-06-12T00:09:04.337Z,1007.05
2018-06-12T00:10:04.333Z,1007.04
2018-06-12T00:11:04.330Z,1007.08
2018-06-12T00:12:04.335Z,1007.06
2018-06-12T00:13:04.340Z,1007.12
2018-06-12T00:14:04.329Z,1007.13
2018-06-12T00:15:04.327Z,1007.11
2018-06-12T00:16:04.324Z,1007.14
2018-06-12T00:17:04.326Z,1007.12
2018-06-12T00:18:04.329Z,1007.15
2018-06-12T00:19:04.329Z,1007.15
2018-06-12T00:20:04.327Z,1007.13
2018-06-12T00:21:04.328Z,1007.13
2018-06-12T00:22:04.320Z,1007.16
2018-06-12T00:23:04.322Z,1007.15
2018-06-12T00:24:04.317Z,1007.15
2018-06-12T00:25:04.317Z,1007.16
2018-06-12T00:26:04.320Z,1007.14
2018-06-12T00:27:04.318Z,1007.11
2018-06-12T00:28:04.314Z,1007.06
2018-06-12T00:29:04.313Z,1007.05
2018-06-12T00:30:04.316Z,1007.04
2018-06-12T00:31:04.315Z,1007.04
2018-06-12T00:32:04.314Z,1007.05
2018-06-12T00:33:04.314Z,1007.01
2018-06-12T00:34:04.311Z,1007.00
2018-06-12T00:35:04.306Z,1006.98
2018-06-12T00:36:04.304Z,1007.02
2018-06-12T00:37:04.304Z,1007.03
2018-06-12T00:38:04.307Z,1007.04
2018-06-12T00:39:04.306Z,1007.01
2018-06-12T00:40:04.304Z,1007.05
2018-06-12T00:41:04.303Z,1007.05
2018-06-12T00:42:04.300Z,1007.11
2018-06-12T00:43:04.298Z,1007.17
2018-06-12T00:44:04.299Z,1007.14
2018-06-12T00:45:04.299Z,1007.13
2018-06-12T00:46:04.294Z,1007.13
2018-06-12T00:47:04.290Z,1007.09
2018-06-12T00:48:04.289Z,1007.10
2018-06-12T00:49:04.290Z,1007.09
2018-06-12T00:50:04.292Z,1007.13
2018-06-12T00:51:04.292Z,1007.10
2018-06-12T00:52:04.289Z,1007.09
2018-06-12T00:53:04.288Z,1007.05
2018-06-12T00:54:04.282Z,1007.08
2018-06-12T00:55:04.280Z,1007.05
2018-06-12T00:56:04.283Z,1006.99
2018-06-12T00:57:04.278Z,1007.03
2018-06-12T00:58:04.282Z,1007.02
2018-06-12T00:59:04.280Z,1007.02
2018-06-12T01:00:04.273Z,1007.07
2018-06-12T01:01:04.275Z,1007.09
2018-06-12T01:02:04.282Z,1007.05
2018-06-12T01:03:04.275Z,1007.07
2018-06-12T01:04:04.273Z,1007.08
2018-06-12T01:05:04.271Z,1007.05
2018-06-12T01:06:04.267Z,1007.06
2018-06-12T01:07:04.263Z,1007.09
2018-06-12T01:08:04.262Z,1007.10
2018-06-12T01:09:04.265Z,1007.11
2018-06-12T01:10:04.264Z,1007.12
2018-06-12T01:11:04.261Z,1007.08
2018-06-12T01:12:04.261Z,1007.14
2018-06-12T01:13:04.260Z,1007.11
2018-06-12T01:14:04.253Z,1007.15
2018-06-12T01:15:04.252Z,1007.10
2018-06-12T01:16:04.255Z,1007.14
2018-06-12T01:17:04.255Z,1007.14
2018-06-12T01:18:04.248Z,1007.11
2018-06-12T01:19:04.252Z,1007.11
2018-06-12T01:20:04.244Z,1007.15
2018-06-12T01:21:04.245Z,1007.16
2018-06-12T01:22:04.246Z,1007.11
2018-06-12T01:23:04.270Z,1007.07
2018-06-12T01:24:04.243Z,1007.10
2018-06-12T01:25:04.244Z,1007.11
2018-06-12T01:26:04.238Z,1007.09
2018-06-12T01:27:04.234Z,1007.16
2018-06-12T01:28:04.235Z,1007.14
2018-06-12T01:29:04.232Z,1007.17
2018-06-12T01:30:04.236Z,1007.20
2018-06-12T01:31:04.235Z,1007.17
2018-06-12T01:32:04.227Z,1007.21
2018-06-12T01:33:04.226Z,1007.19
2018-06-12T01:34:04.231Z,1007.15
2018-06-12T01:35:04.227Z,1007.20
2018-06-12T01:36:04.225Z,1007.17
2018-06-12T01:37:04.225Z,1007.21
2018-06-12T01:38:04.218Z,1007.28
2018-06-12T01:39:04.216Z,1007.26
2018-06-12T01:40:04.216Z,1007.31
2018-06-12T01:41:04.214Z,1007.35
2018-06-12T01:42:04.219Z,1007.34
2018-06-12T01:43:04.214Z,1007.41
2018-06-12T01:44:04.214Z,1007.40
2018-06-12T01:45:04.212Z,1007.42
2018-06-12T01:46:04.206Z,1007.45
2018-06-12T01:47:04.206Z,1007.42
2018-06-12T01:48:04.208Z,1007.43
2018-06-12T01:49:04.207Z,1007.46
2018-06-12T01:50:04.200Z,1007.44
2018-06-12T01:51:04.200Z,1007.45
2018-06-12T01:52:04.196Z,1007.41
2018-06-12T01:53:04.195Z,1007.42
2018-06-12T01:54:04.199Z,1007.45
2018-06-12T01:55:04.196Z,1007.38
2018-06-12T01:56:04.199Z,1007.46
2018-06-12T01:57:04.193Z,1007.44
2018-06-12T01:58:04.187Z,1007.43
2018-06-12T01:59:04.185Z,1007.43
2018-06-12T02:00:04.186Z,1007.46
2018-06-12T02:01:04.183Z,1007.42
2018-06-12T02:02:04.185Z,1007.45
2018-06-12T02:03:04.182Z,1007.44
2018-06-12T02:04:04.176Z,1007.38
2018-06-12T02:05:04.175Z,1007.35
2018-06-12T02:06:04.179Z,1007.38
2018-06-12T02:07:04.175Z,1007.36
2018-06-12T02:08:04.177Z,1007.34
2018-06-12T02:09:04.174Z,1007.35
2018-06-12T02:13:31.250Z,1007.28
2018-06-12T02:14:31.284Z,1007.27
2018-06-12T02:15:31.242Z,1007.25
2018-06-12T02:16:31.239Z,1007.30
2018-06-12T02:17:31.238Z,1007.33
2018-06-12T02:18:31.240Z,1007.33
2018-06-12T02:19:31.238Z,1007.30
2018-06-12T02:20:31.232Z,1007.30
2018-06-12T02:21:31.231Z,1007.24
2018-06-12T02:22:31.234Z,1007.29
2018-06-12T02:23:31.231Z,1007.24
2018-06-12T02:24:31.230Z,1007.23
2018-06-12T02:25:31.228Z,1007.24
2018-06-12T02:26:31.222Z,1007.23
2018-06-12T02:27:31.220Z,1007.19
2018-06-12T02:28:31.221Z,1007.24
2018-06-12T02:29:31.216Z,1007.22
2018-06-12T02:30:31.220Z,1007.23
2018-06-12T02:31:31.218Z,1007.23
2018-06-12T02:32:31.214Z,1007.32
2018-06-12T02:33:31.213Z,1007.28
2018-06-12T02:34:31.207Z,1007.27
2018-06-12T02:35:31.204Z,1007.27
2018-06-12T02:36:31.210Z,1007.27
2018-06-12T02:37:31.205Z,1007.31
2018-06-12T02:38:31.201Z,1007.28
2018-06-12T02:39:31.197Z,1007.31
2018-06-12T02:40:31.195Z,1007.27
2018-06-12T02:41:31.195Z,1007.29
2018-06-12T02:42:31.196Z,1007.29
2018-06-12T02:43:31.194Z,1007.26
2018-06-12T02:44:31.206Z,1007.23
2018-06-12T02:45:31.191Z,1007.25
2018-06-12T02:46:31.184Z,1007.23
2018-06-12T02:47:31.184Z,1007.20
2018-06-12T02:48:31.180Z,1007.15
2018-06-12T02:49:31.178Z,1007.16
2018-06-12T02:50:31.181Z,1007.18
2018-06-12T02:51:31.178Z,1007.16
2018-06-12T02:52:31.172Z,1007.16
2018-06-12T02:53:31.170Z,1007.18
2018-06-12T02:54:31.173Z,1007.18
2018-06-12T02:55:31.179Z,1007.25
2018-06-12T02:56:31.172Z,1007.21
2018-06-12T02:57:31.169Z,1007.24
2018-06-12T02:58:31.161Z,1007.18
2018-06-12T02:59:31.159Z,1007.18
2018-06-12T03:00:31.158Z,1007.16
2018-06-12T03:01:31.163Z,1007.25
2018-06-12T03:02:31.158Z,1007.24
2018-06-12T03:03:31.160Z,1007.23
2018-06-12T03:04:31.152Z,1007.24
2018-06-12T03:05:31.156Z,1007.21
2018-06-12T03:06:31.145Z,1007.26
2018-06-12T03:07:31.142Z,1007.23
2018-06-12T03:08:31.146Z,1007.26
2018-06-12T03:09:31.170Z,1007.21
2018-06-12T03:10:31.145Z,1007.18
2018-06-12T03:11:31.133Z,1007.19
2018-06-12T03:12:31.146Z,1007.22
2018-06-12T03:13:31.130Z,1007.20
2018-06-12T03:14:31.139Z,1007.19
2018-06-12T03:15:31.135Z,1007.18
2018-06-12T03:16:31.134Z,1007.21
2018-06-12T03:17:31.125Z,1007.18
2018-06-12T03:18:31.121Z,1007.18
2018-06-12T03:19:31.117Z,1007.17
2018-06-12T03:20:31.114Z,1007.17
2018-06-12T03:21:31.113Z,1007.20
2018-06-12T03:22:31.115Z,1007.22
2018-06-12T03:23:31.113Z,1007.19
2018-06-12T03:24:31.104Z,1007.21
2018-06-12T03:25:31.105Z,1007.21
2018-06-12T03:26:31.108Z,1007.19
2018-06-12T03:27:31.104Z,1007.16
2018-06-12T03:28:31.102Z,1007.30
2018-06-12T03:29:31.101Z,1007.18
2018-06-12T03:30:31.100Z,1007.21
2018-06-12T03:31:31.091Z,1007.22
2018-06-12T03:32:31.088Z,1007.22
2018-06-12T03:33:31.086Z,1007.17
2018-06-12T03:34:31.088Z,1007.22
2018-06-12T03:35:31.086Z,1007.23
2018-06-12T03:36:31.085Z,1007.21
2018-06-12T03:37:31.083Z,1007.18
2018-06-12T03:38:31.076Z,1007.21
2018-06-12T03:39:31.080Z,1007.24
2018-06-12T03:40:31.076Z,1007.24
2018-06-12T03:41:31.074Z,1007.25
2018-06-12T03:42:31.066Z,1007.17
2018-06-12T03:43:31.066Z,1007.26
2018-06-12T03:44:31.062Z,1007.20
2018-06-12T03:45:31.059Z,1007.21
2018-06-12T03:46:31.062Z,1007.20
2018-06-12T03:47:31.059Z,1007.18
2018-06-12T03:48:31.058Z,1007.16
2018-06-12T03:49:31.056Z,1007.15
2018-06-12T03:50:31.049Z,1007.11
2018-06-12T03:51:31.046Z,1007.16
2018-06-12T03:52:31.044Z,1007.12
2018-06-12T03:53:31.043Z,1007.08
2018-06-12T03:54:31.046Z,1007.09
2018-06-12T03:55:31.042Z,1007.09
2018-06-12T03:56:31.035Z,1007.14
2018-06-12T03:57:31.043Z,1007.13
2018-06-12T03:58:31.036Z,1007.13
2018-06-12T03:59:31.034Z,1007.15
2018-06-12T04:00:31.031Z,1007.09
2018-06-12T04:01:31.030Z,1007.09
2018-06-12T04:02:31.023Z,1007.15
2018-06-12T04:03:31.020Z,1007.18
2018-06-12T04:04:31.018Z,1007.19
2018-06-12T04:05:31.015Z,1007.17
2018-06-12T04:06:31.018Z,1007.21
2018-06-12T04:07:31.015Z,1007.20
2018-06-12T04:08:31.014Z,1007.19
2018-06-12T04:09:31.018Z,1007.20
2018-06-12T04:10:31.005Z,1007.29
2018-06-12T04:11:31.002Z,1007.24
2018-06-12T04:12:31.005Z,1007.27
2018-06-12T04:13:31.003Z,1007.31
2018-06-12T04:14:30.996Z,1007.31
2018-06-12T04:15:30.992Z,1007.29
2018-06-12T04:16:30.992Z,1007.31
2018-06-12T04:17:30.989Z,1007.31
2018-06-12T04:18:30.990Z,1007.37
2018-06-12T04:19:30.988Z,1007.33
2018-06-12T04:20:31.007Z,1007.31
2018-06-12T04:21:30.984Z,1007.32
2018-06-12T04:22:30.978Z,1007.31
2018-06-12T04:23:30.976Z,1007.35
2018-06-12T04:24:30.972Z,1007.34
2018-06-12T04:25:30.971Z,1007.32
2018-06-12T04:26:30.973Z,1007.36
2018-06-12T04:27:30.971Z,1007.36
2018-06-12T04:28:30.964Z,1007.33
2018-06-12T04:29:30.961Z,1007.35
2018-06-12T04:30:30.965Z,1007.32
2018-06-12T04:31:30.961Z,1007.34
2018-06-12T04:32:30.960Z,1007.37
2018-06-12T04:33:30.959Z,1007.33
2018-06-12T04:34:30.952Z,1007.34
2018-06-12T04:35:30.951Z,1007.35
2018-06-12T04:36:30.947Z,1007.41
2018-06-12T04:37:30.947Z,1007.40
2018-06-12T04:38:30.949Z,1007.43
2018-06-12T04:39:30.946Z,1007.43
2018-06-12T04:40:30.943Z,1007.40
2018-06-12T04:41:30.942Z,1007.44
2018-06-12T04:42:30.936Z,1007.42
2018-06-12T04:43:30.933Z,1007.41
2018-06-12T04:44:30.935Z,1007.42
2018-06-12T04:45:30.939Z,1007.46
2018-06-12T04:46:30.928Z,1007.42
2018-06-12T04:47:30.925Z,1007.44
2018-06-12T04:48:30.924Z,1007.41
2018-06-12T04:49:30.922Z,1007.43
2018-06-12T04:50:30.925Z,1007.42
2018-06-12T04:51:30.922Z,1007.44
2018-06-12T04:52:30.920Z,1007.45
2018-06-12T04:53:30.921Z,1007.45
2018-06-12T04:54:30.943Z,1007.44
2018-06-12T04:55:30.908Z,1007.47
2018-06-12T04:56:30.907Z,1007.54
2018-06-12T04:57:30.905Z,1007.43
2018-06-12T04:58:30.910Z,1007.53
2018-06-12T04:59:30.903Z,1007.53
2018-06-12T05:00:30.900Z,1007.54
2018-06-12T05:01:30.896Z,1007.54
2018-06-12T05:02:30.899Z,1007.57
2018-06-12T05:03:30.896Z,1007.59
2018-06-12T05:04:30.896Z,1007.57
2018-06-12T05:05:30.893Z,1007.64
2018-06-12T05:06:30.888Z,1007.62
2018-06-12T05:07:30.888Z,1007.59
2018-06-12T05:08:30.882Z,1007.65
2018-06-12T05:09:30.880Z,1007.66
2018-06-12T05:10:30.892Z,1007.62
2018-06-12T05:11:30.882Z,1007.66
2018-06-12T05:12:30.880Z,1007.77
2018-06-12T05:13:30.877Z,1007.70
2018-06-12T05:14:30.871Z,1007.75
2018-06-12T05:15:30.868Z,1007.76
2018-06-12T05:16:30.871Z,1007.70
2018-06-12T05:17:30.869Z,1007.72
2018-06-12T05:18:30.865Z,1007.72
2018-06-12T05:19:30.862Z,1007.78
2018-06-12T05:20:30.861Z,1007.75
2018-06-12T05:21:30.859Z,1007.79
2018-06-12T05:22:30.861Z,1007.93
2018-06-12T05:23:30.860Z,1007.94
2018-06-12T05:24:30.857Z,1008.10
2018-06-12T05:25:30.914Z,1008.13
2018-06-12T05:26:30.850Z,1007.87
2018-06-12T05:27:30.848Z,1007.85
2018-06-12T05:28:30.847Z,1007.85
2018-06-12T05:29:30.846Z,1007.87
2018-06-12T05:30:30.851Z,1007.91
2018-06-12T05:31:30.849Z,1007.89
2018-06-12T05:32:30.843Z,1007.91
2018-06-12T05:33:30.841Z,1007.93
2018-06-12T05:34:30.846Z,1007.91
2018-06-12T05:35:30.846Z,1007.95
2018-06-12T05:36:30.843Z,1007.95
2018-06-12T05:37:30.843Z,1008.01
2018-06-12T05:38:30.840Z,1007.99
2018-06-12T05:39:30.837Z,1008.02
2018-06-12T05:40:30.837Z,1008.07
2018-06-12T05:41:30.837Z,1007.98
2018-06-12T05:42:30.841Z,1007.95
2018-06-12T05:43:30.843Z,1007.98
2018-06-12T05:44:30.845Z,1008.00
2018-06-12T05:45:30.841Z,1007.99
2018-06-12T05:46:30.836Z,1007.96
2018-06-12T05:47:30.834Z,1007.95
2018-06-12T05:48:30.839Z,1007.96
2018-06-12T05:49:30.841Z,1007.92
2018-06-12T05:50:30.833Z,1007.92
2018-06-12T05:51:30.832Z,1007.97
2018-06-12T05:52:30.832Z,1007.99
2018-06-12T05:53:30.835Z,1007.99
2018-06-12T05:54:30.836Z,1007.96
2018-06-12T05:55:30.835Z,1007.98
2018-06-12T05:56:30.836Z,1007.94
2018-06-12T05:57:30.836Z,1007.93
2018-06-12T05:58:30.830Z,1007.98
2018-06-12T05:59:30.830Z,1007.98
2018-06-12T06:00:30.830Z,1008.04
2018-06-12T06:01:30.831Z,1007.99
2018-06-12T06:02:30.834Z,1008.06
2018-06-12T06:03:30.834Z,1008.09
2018-06-12T06:04:30.827Z,1008.09
2018-06-12T06:05:30.827Z,1008.12
2018-06-12T06:06:30.833Z,1008.08
2018-06-12T06:07:30.831Z,1008.11
2018-06-12T06:08:30.832Z,1008.11
2018-06-12T06:09:30.833Z,1008.13
2018-06-12T06:10:30.826Z,1008.16
2018-06-12T06:11:30.824Z,1008.19
2018-06-12T06:12:30.823Z,1008.20
2018-06-12T06:13:30.823Z,1008.19
2018-06-12T06:14:30.827Z,1008.18
2018-06-12T06:15:30.829Z,1008.20
2018-06-12T06:16:30.826Z,1008.26
2018-06-12T06:17:30.827Z,1008.30
2018-06-12T06:18:30.822Z,1008.28
2018-06-12T06:19:30.820Z,1008.26
2018-06-12T06:20:30.826Z,1008.26
2018-06-12T06:21:30.825Z,1008.32
2018-06-12T06:22:30.885Z,1008.26
2018-06-12T06:23:30.820Z,1008.33
2018-06-12T06:24:30.819Z,1008.32
2018-06-12T06:25:30.819Z,1008.32
2018-06-12T06:26:30.823Z,1008.30
2018-06-12T06:27:30.824Z,1008.34
2018-06-12T06:28:30.829Z,1008.30
2018-06-12T06:29:30.822Z,1008.32
2018-06-12T06:30:30.818Z,1008.31
2018-06-12T06:31:30.817Z,1008.31
2018-06-12T06:32:30.817Z,1008.25
2018-06-12T06:33:30.817Z,1008.32
2018-06-12T06:34:30.823Z,1008.31
2018-06-12T06:35:30.821Z,1008.31
2018-06-12T06:36:30.817Z,1008.29
2018-06-12T06:37:30.821Z,1008.29
2018-06-12T06:38:30.821Z,1008.37
2018-06-12T06:39:30.821Z,1008.34
2018-06-12T06:40:30.822Z,1008.33
2018-06-12T06:41:30.823Z,1008.32
2018-06-12T06:42:30.815Z,1008.33
2018-06-12T06:43:30.814Z,1008.35
2018-06-12T06:44:30.814Z,1008.39
2018-06-12T06:45:30.816Z,1008.40
2018-06-12T06:46:30.818Z,1008.36
2018-06-12T06:47:30.817Z,1008.39
2018-06-12T06:48:30.818Z,1008.36
2018-06-12T06:49:30.817Z,1008.41
2018-06-12T06:50:30.812Z,1008.42
2018-06-12T06:51:30.811Z,1008.44
2018-06-12T06:52:30.817Z,1008.42
2018-06-12T06:53:30.856Z,1008.41
2018-06-12T06:54:30.811Z,1008.34
2018-06-12T06:55:30.812Z,1008.43
2018-06-12T06:56:30.810Z,1008.38
2018-06-12T06:57:30.809Z,1008.43
2018-06-12T06:58:30.814Z,1008.40
2018-06-12T06:59:30.813Z,1008.38
2018-06-12T07:00:30.814Z,1008.39
2018-06-12T07:01:30.813Z,1008.39
2018-06-12T07:02:30.808Z,1008.43
2018-06-12T07:03:30.809Z,1008.43
2018-06-12T07:04:30.810Z,1008.38
2018-06-12T07:05:30.807Z,1008.38
2018-06-12T07:06:30.813Z,1008.36
2018-06-12T07:07:30.811Z,1008.35
2018-06-12T07:08:30.808Z,1008.34
2018-06-12T07:09:30.805Z,1008.35
2018-06-12T07:10:30.812Z,1008.38
2018-06-12T07:11:30.810Z,1008.37
2018-06-12T07:12:30.809Z,1008.41
2018-06-12T07:13:30.811Z,1008.38
2018-06-12T07:14:30.805Z,1008.39
2018-06-12T07:15:30.804Z,1008.38
2018-06-12T07:16:30.804Z,1008.36
2018-06-12T07:17:30.805Z,1008.29
2018-06-12T07:18:30.808Z,1008.29
2018-06-12T07:19:30.808Z,1008.38
2018-06-12T07:20:30.807Z,1008.36
2018-06-12T07:21:30.809Z,1008.34
2018-06-12T07:22:30.803Z,1008.38
2018-06-12T07:23:30.803Z,1008.31
2018-06-12T07:24:30.810Z,1008.33
2018-06-12T07:25:30.808Z,1008.34
2018-06-12T07:26:30.803Z,1008.37
2018-06-12T07:27:30.802Z,1008.36
2018-06-12T07:28:30.802Z,1008.39
2018-06-12T07:29:30.807Z,1008.30
2018-06-12T07:30:30.807Z,1008.31
2018-06-12T07:31:30.806Z,1008.40
2018-06-12T07:32:30.808Z,1008.39
2018-06-12T07:33:30.808Z,1008.34
2018-06-12T07:34:30.803Z,1008.40
2018-06-12T07:35:30.802Z,1008.42
2018-06-12T07:36:30.803Z,1008.42
2018-06-12T07:37:30.870Z,1008.41
2018-06-12T07:38:30.811Z,1008.49
2018-06-12T07:39:30.808Z,1008.51
2018-06-12T07:40:30.804Z,1008.54
2018-06-12T07:41:30.804Z,1008.54
2018-06-12T07:42:30.809Z,1008.57
2018-06-12T07:43:30.843Z,1008.61
2018-06-12T07:44:30.811Z,1008.60
2018-06-12T07:45:30.811Z,1008.61
2018-06-12T07:46:30.807Z,1008.57
2018-06-12T07:47:30.808Z,1008.65
2018-06-12T07:48:30.810Z,1008.64
2018-06-12T07:49:30.809Z,1008.62
2018-06-12T07:50:30.814Z,1008.69
2018-06-12T07:51:30.815Z,1008.67
2018-06-12T07:52:30.814Z,1008.72
2018-06-12T07:53:30.816Z,1008.65
2018-06-12T07:54:30.814Z,1008.62
2018-06-12T07:55:30.816Z,1008.64
2018-06-12T07:56:30.822Z,1008.67
2018-06-12T07:57:30.820Z,1008.66
2018-06-12T07:58:30.820Z,1008.64
2018-06-12T07:59:30.818Z,1008.67
2018-06-12T08:00:30.822Z,1008.61
2018-06-12T08:01:30.820Z,1008.64
2018-06-12T08:02:30.828Z,1008.59
2018-06-12T08:03:30.830Z,1008.63
2018-06-12T08:04:30.830Z,1008.59
2018-06-12T08:05:30.832Z,1008.63
2018-06-12T08:06:30.827Z,1008.64
2018-06-12T08:07:30.831Z,1008.65
2018-06-12T08:08:30.830Z,1008.63
2018-06-12T08:09:30.832Z,1008.64
2018-06-12T08:10:30.838Z,1008.67
2018-06-12T08:11:30.839Z,1008.63
2018-06-12T08:12:30.836Z,1008.62
2018-06-12T08:13:30.838Z,1008.54
2018-06-12T08:14:30.844Z,1008.60
2018-06-12T08:15:30.846Z,1008.61
2018-06-12T08:16:30.848Z,1008.65
2018-06-12T08:17:30.850Z,1008.63
2018-06-12T08:18:30.863Z,1008.67
2018-06-12T08:19:30.850Z,1008.68
2018-06-12T08:20:30.858Z,1008.69
2018-06-12T08:21:30.853Z,1008.74
2018-06-12T08:22:30.860Z,1009.18
2018-06-12T08:23:30.861Z,1008.89
2018-06-12T08:24:30.863Z,1008.86
2018-06-12T08:25:30.867Z,1008.85
2018-06-12T08:26:30.865Z,1008.91
2018-06-12T08:27:30.865Z,1008.84
2018-06-12T08:28:30.873Z,1008.82
2018-06-12T08:29:30.875Z,1008.77
2018-06-12T08:30:30.936Z,1008.78
2018-06-12T08:31:30.875Z,1008.77
2018-06-12T08:32:30.879Z,1008.78
2018-06-12T08:33:30.883Z,1008.73
2018-06-12T08:34:30.891Z,1008.79
2018-06-12T08:35:30.925Z,1008.80
2018-06-12T08:36:30.895Z,1008.78
2018-06-12T08:37:30.898Z,1008.76
2018-06-12T08:38:30.897Z,1008.73
2018-06-12T08:39:30.899Z,1008.78
2018-06-12T08:40:30.906Z,1008.77
2018-06-12T08:41:30.906Z,1008.76
2018-06-12T08:42:30.914Z,1008.73
2018-06-12T08:43:30.919Z,1008.74
2018-06-12T08:44:30.916Z,1008.72
2018-06-12T08:45:30.919Z,1008.67
2018-06-12T08:46:30.993Z,1008.67
2018-06-12T08:47:30.928Z,1008.69
2018-06-12T08:48:30.930Z,1008.68
2018-06-12T08:49:30.933Z,1008.67
2018-06-12T08:50:30.933Z,1008.72
2018-06-12T08:51:30.934Z,1008.74
2018-06-12T08:52:30.937Z,1008.75
2018-06-12T08:53:30.940Z,1008.77
2018-06-12T08:54:30.948Z,1008.76
2018-06-12T08:55:30.949Z,1008.81
2018-06-12T08:56:30.955Z,1008.78
2018-06-12T08:57:30.959Z,1008.77
2018-06-12T08:58:30.957Z,1008.84
2018-06-12T08:59:30.956Z,1008.85
2018-06-12T09:00:30.963Z,1008.83
2018-06-12T09:01:30.969Z,1009.02
2018-06-12T09:02:30.964Z,1009.06
2018-06-12T09:03:30.965Z,1009.05
2018-06-12T09:04:30.971Z,1009.00
2018-06-12T09:05:30.971Z,1008.93
2018-06-12T09:06:30.978Z,1008.88
2018-06-12T09:07:30.980Z,1008.87
2018-06-12T09:08:30.983Z,1008.81
2018-06-12T09:09:30.987Z,1008.82
2018-06-12T09:10:30.985Z,1008.84
2018-06-12T09:11:30.988Z,1008.83
2018-06-12T09:12:30.990Z,1008.82
2018-06-12T09:13:30.995Z,1008.86
2018-06-12T09:14:31.002Z,1008.89
2018-06-12T09:15:31.008Z,1009.01
2018-06-12T09:16:31.002Z,1008.94
2018-06-12T09:17:31.007Z,1008.97
2018-06-12T09:18:31.016Z,1009.04
2018-06-12T09:19:31.016Z,1009.15
2018-06-12T09:20:31.020Z,1009.21
2018-06-12T09:21:31.021Z,1009.26
2018-06-12T09:22:31.029Z,1009.29
2018-06-12T09:23:31.023Z,1009.32
2018-06-12T09:24:31.028Z,1009.29
2018-06-12T09:25:31.032Z,1009.23
2018-06-12T09:26:31.040Z,1009.25
2018-06-12T09:27:31.044Z,1009.25
2018-06-12T09:28:31.058Z,1009.23
2018-06-12T09:29:31.053Z,1009.20
2018-06-12T09:30:31.053Z,1009.19
2018-06-12T09:31:31.058Z,1009.19
2018-06-12T09:32:31.066Z,1009.23
2018-06-12T09:33:31.075Z,1009.22
2018-06-12T09:34:31.072Z,1009.13
2018-06-12T09:35:31.077Z,1009.14
2018-06-12T09:36:31.081Z,1009.18
2018-06-12T09:37:31.087Z,1009.10
2018-06-12T09:38:31.096Z,1009.12
2018-06-12T09:39:31.101Z,1009.13
2018-06-12T09:40:31.108Z,1009.16
2018-06-12T09:41:31.113Z,1009.20
2018-06-12T09:42:31.113Z,1009.22
2018-06-12T09:43:31.121Z,1009.20
2018-06-12T09:44:31.129Z,1009.18
2018-06-12T09:45:31.131Z,1009.16
2018-06-12T09:46:31.143Z,1009.20
2018-06-12T09:47:31.146Z,1009.17
2018-06-12T09:48:31.149Z,1009.10
2018-06-12T09:49:31.157Z,1009.08
2018-06-12T09:50:31.164Z,1009.13
2018-06-12T09:51:31.169Z,1009.07
2018-06-12T09:52:31.176Z,1009.09
2018-06-12T09:53:31.182Z,1009.08
2018-06-12T09:54:31.183Z,1009.09
2018-06-12T09:55:31.196Z,1009.09
2018-06-12T09:56:31.192Z,1009.07
2018-06-12T09:57:31.198Z,1009.07
2018-06-12T09:58:31.210Z,1009.09
2018-06-12T09:59:31.214Z,1009.18
2018-06-12T10:00:31.221Z,1009.15
2018-06-12T10:01:31.225Z,1009.13
2018-06-12T10:02:31.225Z,1009.14
2018-06-12T10:03:31.231Z,1009.17
2018-06-12T10:04:31.238Z,1009.23
2018-06-12T10:05:31.244Z,1009.22
2018-06-12T10:06:31.247Z,1009.22
2018-06-12T10:07:31.248Z,1009.24
2018-06-12T10:08:31.255Z,1009.25
2018-06-12T10:09:31.259Z,1009.31
2018-06-12T10:10:31.271Z,1009.26
2018-06-12T10:11:31.274Z,1009.29
2018-06-12T10:12:31.282Z,1009.25
2018-06-12T10:13:31.283Z,1009.32
2018-06-12T10:14:31.283Z,1009.30
2018-06-12T10:15:31.287Z,1009.34
2018-06-12T10:16:31.292Z,1009.30
2018-06-12T10:17:31.296Z,1009.28
2018-06-12T10:18:31.305Z,1009.32
2018-06-12T10:19:31.310Z,1009.34
2018-06-12T10:20:31.310Z,1009.38
2018-06-12T10:21:31.314Z,1009.37
2018-06-12T10:22:31.324Z,1009.35
2018-06-12T10:23:31.327Z,1009.34
2018-06-12T10:24:31.333Z,1009.37
2018-06-12T10:25:31.337Z,1009.39
2018-06-12T10:26:31.336Z,1009.41
2018-06-12T10:27:31.340Z,1009.37
2018-06-12T10:28:31.344Z,1009.30
2018-06-12T10:29:31.349Z,1009.34
2018-06-12T10:30:31.361Z,1009.34
2018-06-12T10:31:31.362Z,1009.35
2018-06-12T10:32:31.369Z,1009.36
2018-06-12T10:33:31.370Z,1009.31
2018-06-12T10:34:31.374Z,1009.32
2018-06-12T10:35:31.374Z,1009.35
2018-06-12T10:36:31.383Z,1009.34
2018-06-12T10:37:31.392Z,1009.36
2018-06-12T10:38:31.389Z,1009.35
2018-06-12T10:39:31.392Z,1009.38
2018-06-12T10:40:31.395Z,1009.31
2018-06-12T10:41:31.400Z,1009.26
2018-06-12T10:42:31.409Z,1009.30
2018-06-12T10:43:31.413Z,1009.26
2018-06-12T10:44:31.438Z,1009.26
2018-06-12T10:45:31.415Z,1009.28
2018-06-12T10:46:31.425Z,1009.26
2018-06-12T10:47:31.429Z,1009.30
2018-06-12T10:48:31.436Z,1009.34
2018-06-12T10:49:31.437Z,1009.27
2018-06-12T10:50:31.437Z,1009.30
2018-06-12T10:51:31.441Z,1009.34
2018-06-12T10:52:31.452Z,1009.31
2018-06-12T10:53:31.455Z,1009.33
2018-06-12T10:54:31.456Z,1009.32
2018-06-12T10:55:31.459Z,1009.30
2018-06-12T10:56:31.478Z,1009.32
2018-06-12T10:57:31.469Z,1009.26
2018-06-12T10:58:31.481Z,1009.23
2018-06-12T10:59:31.481Z,1009.25
2018-06-12T11:00:31.487Z,1009.20
2018-06-12T11:01:31.491Z,1009.19
2018-06-12T11:02:31.492Z,1009.21
2018-06-12T11:03:31.522Z,1009.16
2018-06-12T11:04:31.501Z,1009.15
2018-06-12T11:05:31.506Z,1009.13
2018-06-12T11:06:31.516Z,1009.21
2018-06-12T11:07:31.520Z,1009.20
2018-06-12T11:08:31.520Z,1009.18
2018-06-12T11:09:31.525Z,1009.19
2018-06-12T11:10:31.534Z,1009.17
2018-06-12T11:11:31.539Z,1009.17
2018-06-12T11:12:31.542Z,1009.16
2018-06-12T11:13:31.547Z,1009.12
2018-06-12T11:14:31.552Z,1009.15
2018-06-12T11:15:31.552Z,1009.15
2018-06-12T11:16:31.556Z,1009.13
2018-06-12T11:17:31.561Z,1009.14
2018-06-12T11:18:31.574Z,1009.15
2018-06-12T11:19:31.574Z,1009.08
2018-06-12T11:20:31.580Z,1009.12
2018-06-12T11:21:31.584Z,1009.12
2018-06-12T11:22:31.587Z,1009.16
2018-06-12T11:23:31.587Z,1009.19
2018-06-12T11:24:31.596Z,1009.16
2018-06-12T11:25:31.602Z,1009.15
2018-06-12T11:26:31.607Z,1009.14
2018-06-12T11:27:31.605Z,1009.09
2018-06-12T11:28:31.609Z,1009.10
2018-06-12T11:29:31.613Z,1009.11
2018-06-12T11:30:31.622Z,1009.14
2018-06-12T11:31:31.625Z,1009.08
2018-06-12T11:32:31.630Z,1009.08
2018-06-12T11:33:31.637Z,1009.06
2018-06-12T11:34:31.635Z,1009.09
2018-06-12T11:35:31.638Z,1009.12
2018-06-12T11:36:31.642Z,1009.07
2018-06-12T11:37:31.647Z,1009.12
2018-06-12T11:38:31.658Z,1009.13
2018-06-12T11:39:31.659Z,1009.15
2018-06-12T11:40:31.660Z,1009.10
2018-06-12T11:41:31.665Z,1009.09
2018-06-12T11:42:31.673Z,1009.05
2018-06-12T11:43:31.677Z,1009.06
2018-06-12T11:44:31.681Z,1009.01
2018-06-12T11:45:31.686Z,1009.04
2018-06-12T11:46:31.685Z,1009.05
2018-06-12T11:47:31.692Z,1008.98
2018-06-12T11:48:31.697Z,1008.98
2018-06-12T11:49:31.700Z,1008.96
2018-06-12T11:50:31.710Z,1008.97
2018-06-12T11:51:31.713Z,1009.00
2018-06-12T11:52:31.717Z,1008.97
2018-06-12T11:53:31.722Z,1008.94
2018-06-12T11:54:31.730Z,1008.94
2018-06-12T11:55:31.727Z,1008.98
2018-06-12T11:56:31.740Z,1008.96
2018-06-12T11:57:31.743Z,1008.92
2018-06-12T11:58:31.741Z,1008.98
2018-06-12T11:59:31.744Z,1008.96
2018-06-12T12:00:31.750Z,1008.88
2018-06-12T12:01:31.753Z,1008.96
2018-06-12T12:02:31.765Z,1008.93
2018-06-12T12:03:31.767Z,1008.93
2018-06-12T12:04:31.770Z,1008.88
2018-06-12T12:05:31.783Z,1008.87
2018-06-12T12:06:31.774Z,1008.84
2018-06-12T12:07:31.776Z,1008.89
2018-06-12T12:08:31.780Z,1008.90